KMTP/MTP METAR and TAF weather

Enter ICAO airport designator
Station Type Date Time Source
KMTP METAR 2020/02/27 14:54 UTC NOAA

KMTP 271454Z AUTO 26015G28KT 08/02 A2938 RMK AO1 PK WND 25033/1407 SLP947 T00780017 53021


Station Type Date Time Source
KMTP Decoded METAR 2020/02/27 14:54 UTC NOAA

MONTAUK AIRPORT, NY, United States (KMTP) 41-04N 071-55W 2M
Feb 27, 2020 - 09:54 AM EST / 2020.02.27 1454 UTC
Wind: from the W (260 degrees) at 17 MPH (15 KT) gusting to 32 MPH (28 KT):0
Temperature: 46.0 F (7.8 C)
Dew Point: 35.1 F (1.7 C)
Relative Humidity: 65%
Pressure (altimeter): 29.38 in. Hg (994 hPa)
Pressure tendency: 0.06 inches (2.1 hPa) higher than three hours ago
ob: KMTP 271454Z AUTO 26015G28KT 08/02 A2938 RMK AO1 PK WND 25033/1407 SLP947 T00780017 53021
cycle: 15

Station Type Date Time Source
KMTP TAF UTC NOAA

Error!

Example: see airport list